Historique des mesures à Cassis (13260), France
Quotidien Résumé Juillet 15, 2017 Unités:  Métrique    US   Métrique/US
« Précédent (Jour)
Suivant (Jour) »
Quotidien Hebdomadaire Mensuel Annuel Période au choix
  Maximum: Minimum: Moyenne:
Température: TemperatureC °C 22.6 °C 26.3 °C
Point de rosée: DewpointC °C 9.8 °C 10.7 °C
Humidité: Humidity % 29 % 35 %
Vitesse du vent: 0 km/h 0 km/h 25.3 km/h
Rafales: 0 km/h - -
Vent:- - WSW
Pression: PressurehPa hPa 1008.0 hPa -
Précipitations: 0.0 mm    
Historical Graphs
 
 
Mesures pour : Juillet 15, 2017
Heure Temperature Point de rosée Pression Vent Vitesse du vent Rafales Humidité Pluie (par heure) Conditions
TemperatureC °C DewpointC °C PressurehPa hPa Calm     Humidity % HourlyPrecipMM mm SoftwareType W/m2
00:11 25.6 °C 11.1 °C 1008.4 hPa NW 41.2 km/h 41.2 km/h 40 % 0.0 mm open2300-1.11 W/m2
01:11 25.1 °C 11.3 °C 1008.4 hPa NW 29.5 km/h 49.7 km/h 42 % 0.0 mm open2300-1.11 W/m2
02:11 24.4 °C 11.0 °C 1008.0 hPa North 49.2 km/h 49.2 km/h 43 % 0.0 mm open2300-1.11 W/m2
03:11 23.8 °C 10.8 °C 1008.7 hPa WNW 6.9 km/h 34.8 km/h 44 % 0.0 mm open2300-1.11 W/m2
04:11 23.5 °C 10.5 °C 1008.7 hPa Calm   22.5 km/h 44 % 0.0 mm open2300-1.11 W/m2
05:11 22.9 °C 10.3 °C 1008.4 hPa North 29 km/h 29 km/h 45 % 0.0 mm open2300-1.11 W/m2
06:11 22.6 °C 10.0 °C 1008.7 hPa NNW 16.3 km/h 16.3 km/h 45 % 0.0 mm open2300-1.11 W/m2
07:11 22.8 °C 9.8 °C 1008.7 hPa NNW 13.2 km/h 17.4 km/h 44 % 0.0 mm open2300-1.11 W/m2
08:11 25.6 °C 10.6 °C 1009.0 hPa North 7.6 km/h 36.5 km/h 39 % 0.0 mm open2300-1.11 W/m2
09:11 24.7 °C 10.6 °C 1009.4 hPa WSW 17.9 km/h 17.9 km/h 41 % 0.0 mm open2300-1.11 W/m2
10:11 26.5 °C 10.6 °C 1009.4 hPa WNW 41.2 km/h 41.2 km/h 37 % 0.0 mm open2300-1.11 W/m2
11:11 29.3 °C 10.8 °C 1009.4 hPa NNE 12.2 km/h 45.4 km/h 32 % 0.0 mm open2300-1.11 W/m2
12:11 29.9 °C 10.5 °C 1009.7 hPa NW 33.6 km/h 33.6 km/h 30 % 0.0 mm open2300-1.11 W/m2
13:11 30.9 °C 12.2 °C 1009.7 hPa NNW 24.8 km/h 29.5 km/h 32 % 0.0 mm open2300-1.11 W/m2
14:11 31.2 °C 12.5 °C 1009.4 hPa NW 41.2 km/h 45.4 km/h 32 % 0.0 mm open2300-1.11 W/m2
15:11 31.3 °C 12.6 °C 1009.0 hPa NW 57.9 km/h 57.9 km/h 32 % 0.0 mm open2300-1.11 W/m2
16:11 31.6 °C 12.4 °C 1009.0 hPa WNW 39.9 km/h 41.2 km/h 31 % 0.0 mm open2300-1.11 W/m2
17:11 31.9 °C 11.6 °C 1008.7 hPa NW 30.7 km/h 45.9 km/h 29 % 0.0 mm open2300-1.11 W/m2
18:11 31.6 °C 11.3 °C 1008.7 hPa WNW 27.7 km/h 43.5 km/h 29 % 0.0 mm open2300-1.11 W/m2
19:11 30.8 °C 11.7 °C 1008.0 hPa WNW 37.5 km/h 43.5 km/h 31 % 0.0 mm open2300-1.11 W/m2
20:11 29.6 °C 11.6 °C 1008.4 hPa North 19.6 km/h 42.2 km/h 33 % 0.0 mm open2300-1.11 W/m2
21:11 28.1 °C 11.1 °C 1008.7 hPa WNW 42.6 km/h 42.6 km/h 35 % 0.0 mm open2300-1.11 W/m2
22:11 27.0 °C 11.0 °C 1009.4 hPa NNW 12.7 km/h 50.5 km/h 37 % 0.0 mm open2300-1.11 W/m2
23:11 26.5 °C 11.0 °C 1010.0 hPa Calm   3.4 km/h 38 % 0.0 mm open2300-1.11 W/m2
Observations météo à CASSIS
WU-History script by Weather Underground - 1 mb